Time;durP1;ratioP1;P1;durP2;ratioP2;P2;SDS_P1;SDS_P2;PMS_P1;PMS_P2;Temp;Humidity;BMP_temperature;BMP_pressure;BME280_temperature;BME280_humidity;BME280_pressure;Samples;Min_cycle;Max_cycle;Signal;HPM_P1;HPM_P2
2021/12/26 00:01:51;;;;;;;2.15;1.55;;;17.20;35.60;;;;;;5118650;28;20493;-39
2021/12/26 00:04:16;;;;;;;3.67;2.10;;;17.30;35.60;;;;;;5100898;28;20027;-39
2021/12/26 00:06:43;;;;;;;2.50;1.70;;;17.30;35.60;;;;;;5118751;28;20103;-38
2021/12/26 00:09:09;;;;;;;2.60;1.90;;;17.30;35.60;;;;;;5119061;28;20035;-39
2021/12/26 00:11:36;;;;;;;2.97;2.10;;;17.30;35.60;;;;;;5119511;28;20035;-39
2021/12/26 00:14:16;;;;;;;2.58;1.85;;;17.20;35.50;;;;;;5119499;28;20024;-41
2021/12/26 00:16:43;;;;;;;2.53;1.80;;;17.30;35.50;;;;;;5118775;28;20561;-38
2021/12/26 00:19:09;;;;;;;2.30;1.73;;;17.30;35.50;;;;;;5119605;28;20035;-38
2021/12/26 00:21:36;;;;;;;2.28;1.75;;;17.30;35.50;;;;;;5119342;28;20090;-38
2021/12/26 00:24:03;;;;;;;2.42;1.80;;;17.30;35.40;;;;;;5119085;28;20490;-39
2021/12/26 00:26:31;;;;;;;2.50;1.67;;;17.30;35.30;;;;;;5118339;28;20020;-39
2021/12/26 00:28:57;;;;;;;2.33;1.63;;;17.30;35.20;;;;;;5117399;28;20023;-38
2021/12/26 00:31:24;;;;;;;2.45;1.90;;;17.30;35.30;;;;;;5099314;28;20044;-39
2021/12/26 00:33:50;;;;;;;2.50;1.70;;;17.30;35.20;;;;;;5098914;28;20462;-39
2021/12/26 00:36:15;;;;;;;2.35;1.60;;;17.30;35.20;;;;;;5098431;28;20501;-40
2021/12/26 00:38:41;;;;;;;2.75;1.77;;;17.40;35.20;;;;;;5116761;28;20024;-38
2021/12/26 00:41:07;;;;;;;3.30;1.80;;;17.30;35.20;;;;;;5116232;28;20023;-38
2021/12/26 00:43:33;;;;;;;2.75;1.83;;;17.40;35.20;;;;;;5098736;28;20406;-40
2021/12/26 00:46:00;;;;;;;2.42;1.55;;;17.40;35.20;;;;;;5098655;28;20015;-39
2021/12/26 00:48:26;;;;;;;3.08;2.03;;;17.30;35.00;;;;;;5116573;28;20507;-39
2021/12/26 00:50:52;;;;;;;2.30;1.52;;;17.30;35.00;;;;;;5116346;28;20111;-39
2021/12/26 00:53:18;;;;;;;2.08;1.58;;;17.30;35.00;;;;;;5116701;28;20012;-39
2021/12/26 00:55:45;;;;;;;2.42;1.83;;;17.30;35.00;;;;;;5117025;28;20008;-40
2021/12/26 00:58:11;;;;;;;2.88;1.80;;;17.30;35.00;;;;;;5117750;28;20008;-39
2021/12/26 01:00:42;;;;;;;2.38;1.70;;;17.40;35.00;;;;;;5118422;28;20374;-39
2021/12/26 01:03:08;;;;;;;2.50;1.90;;;17.40;34.90;;;;;;5118180;28;20489;-40
2021/12/26 01:05:35;;;;;;;2.15;1.70;;;17.40;34.80;;;;;;5100574;28;20031;-40
2021/12/26 01:08:03;;;;;;;2.17;1.77;;;17.40;34.80;;;;;;5117808;28;20493;-42
2021/12/26 01:10:35;;;;;;;2.45;1.75;;;17.40;34.70;;;;;;5118349;28;20554;-38
2021/12/26 01:13:11;;;;;;;2.15;1.63;;;17.40;34.70;;;;;;5118722;28;20095;-40
2021/12/26 01:15:37;;;;;;;2.85;1.63;;;17.40;34.70;;;;;;5084830;28;20040;-39
2021/12/26 01:18:03;;;;;;;2.78;1.85;;;17.40;34.70;;;;;;5100632;28;20155;-39
2021/12/26 01:23:08;;;;;;;2.38;1.77;;;17.40;34.60;;;;;;5118830;28;20031;-45
2021/12/26 01:25:35;;;;;;;2.65;1.85;;;17.40;34.60;;;;;;5118659;28;20011;-39
2021/12/26 01:28:01;;;;;;;2.25;1.73;;;17.40;34.60;;;;;;5119002;28;20032;-38
2021/12/26 01:30:27;;;;;;;2.55;1.80;;;17.40;34.50;;;;;;5083227;28;20433;-39
2021/12/26 01:32:53;;;;;;;2.22;1.60;;;17.40;34.50;;;;;;5117376;28;20016;-38
2021/12/26 01:35:19;;;;;;;2.50;1.80;;;17.40;34.50;;;;;;5117296;28;20023;-39
2021/12/26 01:37:45;;;;;;;3.00;1.80;;;17.40;34.40;;;;;;5099055;28;20065;-40
2021/12/26 01:40:11;;;;;;;2.10;1.50;;;17.40;34.40;;;;;;5118135;28;20024;-39
2021/12/26 01:42:37;;;;;;;3.10;1.50;;;17.40;34.40;;;;;;5118508;28;20019;-39
2021/12/26 01:45:07;;;;;;;2.72;1.77;;;17.40;34.40;;;;;;5118063;28;20036;-39
2021/12/26 01:47:33;;;;;;;2.50;1.80;;;17.40;34.40;;;;;;5117316;28;20032;-43
2021/12/26 01:49:59;;;;;;;2.55;1.80;;;17.40;34.40;;;;;;5118215;28;20028;-40
2021/12/26 01:52:25;;;;;;;3.63;1.95;;;17.40;34.40;;;;;;5116822;28;20016;-39
2021/12/26 01:55:01;;;;;;;3.40;1.65;;;17.40;34.40;;;;;;5117755;28;20018;-38
2021/12/26 01:57:26;;;;;;;3.78;1.90;;;17.40;34.40;;;;;;5118082;28;20020;-41
2021/12/26 01:59:53;;;;;;;2.70;1.65;;;17.40;34.40;;;;;;5118464;28;20067;-40
2021/12/26 02:02:21;;;;;;;3.45;1.95;;;17.40;34.40;;;;;;5118508;28;20020;-39
2021/12/26 02:04:47;;;;;;;2.85;1.90;;;17.40;34.30;;;;;;5118698;28;20089;-39
2021/12/26 02:07:14;;;;;;;2.90;1.73;;;17.40;34.80;;;;;;5100661;28;20038;-40
2021/12/26 02:09:40;;;;;;;3.28;1.98;;;17.40;34.20;;;;;;5118753;28;20027;-41
2021/12/26 02:12:07;;;;;;;3.03;1.80;;;17.40;34.20;;;;;;5117122;28;20519;-39
2021/12/26 02:14:34;;;;;;;3.13;1.60;;;17.40;34.10;;;;;;5116858;28;20051;-39
2021/12/26 02:17:00;;;;;;;3.08;2.00;;;17.40;34.10;;;;;;5116784;28;20065;-38
2021/12/26 02:19:27;;;;;;;3.00;2.10;;;17.40;34.00;;;;;;5117391;28;20019;-42
2021/12/26 02:22:16;;;;;;;3.17;1.92;;;17.50;34.00;;;;;;5117305;28;20020;-38
2021/12/26 02:27:32;;;;;;;3.40;2.00;;;17.50;34.00;;;;;;5116948;28;20024;-43
2021/12/26 02:30:00;;;;;;;3.28;2.10;;;17.50;34.00;;;;;;5101286;28;20098;-40
2021/12/26 02:32:26;;;;;;;2.65;1.90;;;17.50;33.90;;;;;;5118514;28;20011;-40
2021/12/26 02:34:52;;;;;;;2.97;2.10;;;17.50;33.90;;;;;;5118071;28;20036;-40
2021/12/26 02:37:20;;;;;;;3.92;1.98;;;17.50;33.90;;;;;;5118144;28;20486;-38
2021/12/26 02:39:46;;;;;;;2.60;1.92;;;17.40;33.90;;;;;;5118067;28;20019;-44
2021/12/26 02:42:13;;;;;;;3.05;2.05;;;17.50;33.90;;;;;;5118063;28;20031;-38
2021/12/26 02:44:39;;;;;;;2.92;1.90;;;17.50;33.90;;;;;;5117443;28;20382;-40
2021/12/26 02:47:05;;;;;;;2.75;1.80;;;17.50;33.90;;;;;;5117261;28;20028;-39
2021/12/26 02:49:31;;;;;;;3.08;2.03;;;17.50;33.90;;;;;;5117707;28;20032;-39
2021/12/26 02:51:57;;;;;;;3.15;2.00;;;17.50;33.90;;;;;;5116564;28;20496;-39
2021/12/26 02:54:23;;;;;;;2.78;1.90;;;17.50;33.80;;;;;;5098857;28;20020;-39
2021/12/26 02:56:49;;;;;;;3.35;2.00;;;17.50;33.80;;;;;;5117672;28;20008;-41
2021/12/26 02:59:16;;;;;;;3.03;1.95;;;17.50;33.90;;;;;;5099621;28;20077;-39
2021/12/26 03:01:42;;;;;;;3.00;2.10;;;17.50;33.90;;;;;;5117476;28;20020;-40
2021/12/26 03:04:09;;;;;;;2.92;1.90;;;17.50;33.90;;;;;;5118609;28;20024;-41
2021/12/26 03:09:43;;;;;;;3.20;2.15;;;17.50;33.70;;;;;;5058075;28;20128;-42
2021/12/26 03:12:09;;;;;;;3.47;2.20;;;17.60;33.80;;;;;;5057797;28;20051;-40
2021/12/26 03:14:37;;;;;;;3.05;1.80;;;17.50;33.60;;;;;;5058360;28;20020;-43
2021/12/26 03:17:03;;;;;;;3.47;2.22;;;17.60;33.70;;;;;;5058206;28;20061;-39
2021/12/26 03:19:49;;;;;;;3.47;2.28;;;17.50;33.60;;;;;;5058032;28;20534;-38
2021/12/26 03:22:15;;;;;;;3.35;2.00;;;17.50;33.70;;;;;;5057755;28;20037;-41
2021/12/26 03:24:43;;;;;;;3.13;2.00;;;17.50;33.60;;;;;;5057805;28;20021;-39
2021/12/26 03:27:08;;;;;;;2.22;1.77;;;17.50;33.60;;;;;;5057068;28;20021;-39
2021/12/26 03:29:34;;;;;;;3.63;2.03;;;17.50;33.70;;;;;;5057401;28;20182;-41
2021/12/26 03:32:00;;;;;;;3.88;2.05;;;17.50;33.70;;;;;;5057545;28;20025;-40
2021/12/26 03:34:47;;;;;;;3.13;2.00;;;17.50;33.70;;;;;;5057299;28;20499;-40
2021/12/26 03:37:33;;;;;;;3.40;2.10;;;17.50;33.70;;;;;;5057590;28;20077;-39
2021/12/26 03:40:18;;;;;;;3.65;2.30;;;17.60;33.70;;;;;;5057008;28;20496;-40
2021/12/26 03:43:03;;;;;;;2.95;2.03;;;17.50;33.70;;;;;;5057765;28;20040;-41
2021/12/26 03:45:29;;;;;;;3.25;1.95;;;17.60;33.90;;;;;;5098603;28;20379;-40
2021/12/26 03:47:55;;;;;;;3.50;1.90;;;17.50;33.80;;;;;;5120710;28;20065;-40
2021/12/26 03:50:22;;;;;;;3.50;2.03;;;17.50;33.90;;;;;;5120450;28;20030;-41
2021/12/26 03:52:50;;;;;;;2.97;1.90;;;17.60;33.90;;;;;;5119617;28;20027;-40
2021/12/26 03:55:17;;;;;;;3.70;2.05;;;17.50;33.90;;;;;;5120747;28;20032;-39
2021/12/26 03:57:43;;;;;;;3.28;2.17;;;17.50;33.90;;;;;;5119235;28;20037;-40
2021/12/26 04:00:09;;;;;;;3.30;2.10;;;17.50;33.90;;;;;;5101582;28;20012;-42
2021/12/26 04:02:36;;;;;;;4.13;2.35;;;17.50;33.90;;;;;;5100503;28;20529;-40
2021/12/26 04:05:03;;;;;;;4.65;2.17;;;17.60;33.90;;;;;;5118410;28;20018;-39
2021/12/26 04:07:29;;;;;;;3.60;2.00;;;17.60;33.90;;;;;;5100189;28;20061;-39
2021/12/26 04:09:55;;;;;;;2.78;1.80;;;17.60;33.90;;;;;;5118286;28;20389;-39
2021/12/26 04:12:22;;;;;;;2.20;1.83;;;17.60;33.90;;;;;;5118465;28;20014;-39
2021/12/26 04:14:48;;;;;;;3.10;2.22;;;17.50;33.90;;;;;;5117855;28;20008;-38
2021/12/26 04:17:15;;;;;;;2.75;1.88;;;17.50;33.90;;;;;;5118031;28;20035;-38
2021/12/26 04:19:42;;;;;;;3.72;2.08;;;17.60;33.90;;;;;;5118263;28;20016;-39
2021/12/26 04:22:08;;;;;;;3.40;2.20;;;17.60;33.90;;;;;;5100677;28;20028;-40
2021/12/26 04:24:34;;;;;;;2.38;1.85;;;17.60;33.90;;;;;;5118489;28;20026;-39
2021/12/26 04:27:00;;;;;;;3.03;2.00;;;17.60;33.90;;;;;;5118392;28;20051;-38
2021/12/26 04:29:27;;;;;;;2.65;2.00;;;17.60;33.90;;;;;;5099760;28;20505;-39
2021/12/26 04:31:53;;;;;;;3.53;1.80;;;17.60;33.90;;;;;;5117169;28;20482;-38
2021/12/26 04:34:19;;;;;;;3.47;2.00;;;17.60;33.90;;;;;;5117025;28;20141;-38
2021/12/26 04:36:45;;;;;;;2.45;1.90;;;17.60;34.00;;;;;;5116282;28;20061;-40
2021/12/26 04:39:11;;;;;;;3.80;2.13;;;17.60;33.90;;;;;;5097878;28;20549;-40
2021/12/26 04:41:37;;;;;;;4.90;2.50;;;17.60;33.90;;;;;;5116281;28;20020;-39
2021/12/26 04:44:03;;;;;;;3.33;2.15;;;17.60;33.90;;;;;;5116431;28;20051;-38
2021/12/26 04:46:29;;;;;;;3.42;2.38;;;17.60;33.90;;;;;;5098011;28;20036;-39
2021/12/26 04:48:55;;;;;;;4.03;2.00;;;17.60;34.00;;;;;;5116276;28;20018;-38
2021/12/26 04:51:21;;;;;;;3.80;2.30;;;17.60;33.90;;;;;;5116173;28;20026;-38
2021/12/26 04:53:47;;;;;;;3.55;2.30;;;17.60;33.90;;;;;;5116583;28;20094;-39
2021/12/26 04:56:14;;;;;;;3.10;2.08;;;17.60;33.90;;;;;;5116743;28;20020;-39
2021/12/26 04:58:41;;;;;;;3.38;2.30;;;17.60;33.90;;;;;;5117785;28;20012;-39
2021/12/26 05:01:06;;;;;;;4.07;2.53;;;17.70;34.00;;;;;;5099152;28;20016;-39
2021/12/26 05:03:32;;;;;;;3.33;2.30;;;17.60;33.90;;;;;;5099844;28;20020;-39
2021/12/26 05:05:58;;;;;;;3.55;2.10;;;17.60;33.90;;;;;;5083101;28;20034;-40
2021/12/26 05:08:25;;;;;;;3.92;2.40;;;17.60;33.90;;;;;;5118061;28;20030;-40
2021/12/26 05:10:51;;;;;;;2.90;2.10;;;17.60;33.90;;;;;;5117971;28;20024;-38
2021/12/26 05:13:17;;;;;;;4.45;2.40;;;17.60;33.90;;;;;;5116429;28;20020;-38
2021/12/26 05:15:43;;;;;;;3.08;2.20;;;17.60;33.90;;;;;;5116451;28;20020;-38
2021/12/26 05:18:09;;;;;;;3.15;2.10;;;17.60;33.90;;;;;;5098075;28;20046;-38
2021/12/26 05:20:35;;;;;;;3.63;2.25;;;17.60;33.90;;;;;;5116360;28;20118;-39
2021/12/26 05:23:01;;;;;;;3.65;2.33;;;17.60;33.90;;;;;;5116036;28;20077;-41
2021/12/26 05:25:28;;;;;;;3.58;2.25;;;17.60;33.90;;;;;;5115688;28;20022;-38
2021/12/26 05:27:54;;;;;;;2.97;2.00;;;17.60;33.90;;;;;;5095967;28;20077;-38
2021/12/26 05:30:21;;;;;;;3.95;2.30;;;17.60;33.90;;;;;;5114198;28;20158;-38
2021/12/26 05:32:48;;;;;;;4.00;2.60;;;17.70;34.00;;;;;;5114554;28;20011;-38
2021/12/26 05:35:15;;;;;;;3.65;2.33;;;17.70;34.00;;;;;;5114557;28;20007;-38
2021/12/26 05:37:41;;;;;;;3.95;2.50;;;17.60;33.90;;;;;;5096312;28;20083;-38
2021/12/26 05:40:10;;;;;;;3.15;2.20;;;17.60;33.90;;;;;;5114294;28;20023;-38
2021/12/26 05:42:36;;;;;;;3.38;2.30;;;17.70;34.00;;;;;;5115534;28;20023;-40
2021/12/26 05:45:03;;;;;;;4.60;2.80;;;17.60;33.90;;;;;;5097912;28;20462;-41
2021/12/26 05:47:31;;;;;;;3.25;2.15;;;17.60;33.90;;;;;;5115309;28;20023;-39
2021/12/26 05:49:57;;;;;;;4.53;2.50;;;17.60;33.90;;;;;;5115541;28;20032;-39
2021/12/26 05:52:24;;;;;;;3.30;2.30;;;17.60;33.90;;;;;;5117494;28;20038;-38
2021/12/26 05:54:50;;;;;;;3.53;2.50;;;17.60;33.90;;;;;;5116894;28;20022;-38
2021/12/26 05:57:16;;;;;;;3.72;2.45;;;17.60;34.00;;;;;;5117068;28;20023;-41
2021/12/26 05:59:42;;;;;;;5.30;2.50;;;17.60;34.00;;;;;;5117455;28;20008;-39
2021/12/26 06:02:08;;;;;;;3.75;2.22;;;17.60;33.90;;;;;;5098942;28;20015;-38
2021/12/26 06:04:34;;;;;;;3.45;2.20;;;17.60;33.90;;;;;;5116924;28;20036;-39
2021/12/26 06:07:00;;;;;;;3.80;2.20;;;17.60;33.90;;;;;;5098274;28;20108;-38
2021/12/26 06:09:26;;;;;;;4.32;2.60;;;17.70;34.00;;;;;;5116486;28;20108;-39
2021/12/26 06:11:53;;;;;;;3.55;2.33;;;17.70;34.00;;;;;;5116563;28;20049;-38
2021/12/26 06:14:20;;;;;;;3.75;2.53;;;17.60;33.90;;;;;;5116498;28;20016;-40
2021/12/26 06:16:46;;;;;;;4.18;2.47;;;17.60;33.90;;;;;;5116653;28;20039;-38
2021/12/26 06:19:12;;;;;;;4.32;2.33;;;17.60;33.90;;;;;;5098178;28;20016;-39
2021/12/26 06:21:38;;;;;;;3.55;2.20;;;17.60;33.90;;;;;;5115686;28;20466;-39
2021/12/26 06:24:05;;;;;;;3.25;2.20;;;17.60;34.00;;;;;;5115527;28;20101;-38
2021/12/26 06:26:32;;;;;;;3.85;2.20;;;17.70;34.00;;;;;;5116462;28;20083;-39
2021/12/26 06:28:59;;;;;;;3.05;2.28;;;17.60;33.90;;;;;;5116403;28;20019;-39
2021/12/26 06:31:25;;;;;;;2.72;2.10;;;17.60;33.90;;;;;;5117151;28;20044;-39
2021/12/26 06:33:50;;;;;;;3.13;2.20;;;17.60;33.90;;;;;;5116794;28;20033;-38
2021/12/26 06:36:16;;;;;;;4.18;2.53;;;17.70;34.00;;;;;;5116481;28;20030;-38
2021/12/26 06:38:43;;;;;;;4.53;2.85;;;17.60;33.90;;;;;;5118728;28;20023;-38
2021/12/26 06:41:12;;;;;;;3.65;2.42;;;17.70;34.00;;;;;;5104899;28;20016;-39
2021/12/26 06:43:38;;;;;;;3.65;2.42;;;17.70;34.00;;;;;;5104447;28;20042;-39
2021/12/26 06:46:04;;;;;;;3.60;2.65;;;17.70;34.00;;;;;;5121478;28;20019;-39
2021/12/26 06:48:30;;;;;;;3.67;2.28;;;17.70;34.00;;;;;;5121345;28;20016;-38
2021/12/26 06:50:56;;;;;;;4.18;2.55;;;17.70;34.00;;;;;;5103094;28;20052;-39
2021/12/26 06:53:22;;;;;;;3.72;2.50;;;17.70;34.00;;;;;;5120984;28;20047;-38
2021/12/26 06:55:48;;;;;;;3.20;2.20;;;17.70;34.00;;;;;;5120798;28;20512;-38
2021/12/26 06:58:15;;;;;;;3.25;2.60;;;17.70;34.00;;;;;;5102814;28;20015;-39
2021/12/26 07:00:41;;;;;;;3.65;2.25;;;17.70;34.00;;;;;;5120721;28;20023;-41
2021/12/26 07:03:08;;;;;;;4.30;2.70;;;17.70;34.00;;;;;;5102745;28;20016;-43
2021/12/26 07:05:34;;;;;;;3.83;2.45;;;17.70;34.00;;;;;;5120627;28;20043;-38
2021/12/26 07:08:01;;;;;;;3.65;2.25;;;17.70;34.10;;;;;;5120506;28;20023;-38
2021/12/26 07:10:26;;;;;;;4.45;2.40;;;17.70;34.10;;;;;;5102440;28;20500;-39
2021/12/26 07:12:52;;;;;;;3.20;2.30;;;17.70;34.10;;;;;;5120597;28;20016;-38
2021/12/26 07:15:18;;;;;;;3.92;2.03;;;17.70;34.10;;;;;;5120394;28;20068;-38
2021/12/26 07:17:45;;;;;;;3.63;2.42;;;17.70;34.00;;;;;;5102088;28;20043;-38
2021/12/26 07:20:14;;;;;;;4.00;2.35;;;17.70;34.00;;;;;;5120583;28;20142;-38
2021/12/26 07:22:39;;;;;;;3.08;2.10;;;17.70;34.10;;;;;;5120391;28;20015;-38
2021/12/26 07:25:06;;;;;;;3.33;2.08;;;17.70;34.10;;;;;;5119961;28;20015;-41
2021/12/26 07:27:33;;;;;;;3.90;2.45;;;17.70;34.20;;;;;;5120141;28;20020;-38
2021/12/26 07:30:02;;;;;;;4.22;2.30;;;17.70;34.20;;;;;;5120144;28;20037;-38
2021/12/26 07:32:28;;;;;;;2.95;2.15;;;17.70;34.20;;;;;;5120487;28;20474;-38
2021/12/26 07:34:55;;;;;;;4.03;2.30;;;17.70;34.20;;;;;;5120398;28;20012;-39
2021/12/26 07:37:20;;;;;;;4.32;2.20;;;17.70;34.30;;;;;;5120283;28;20019;-38
2021/12/26 07:39:46;;;;;;;3.28;2.20;;;17.70;34.20;;;;;;5120624;28;20020;-38
2021/12/26 07:42:12;;;;;;;3.42;2.20;;;17.70;34.20;;;;;;5120665;28;20046;-38
2021/12/26 07:44:38;;;;;;;3.22;2.08;;;17.70;34.20;;;;;;5121064;28;20032;-38
2021/12/26 07:47:04;;;;;;;3.15;2.33;;;17.70;34.20;;;;;;5120993;28;20381;-39
2021/12/26 07:49:31;;;;;;;2.90;1.90;;;17.70;34.20;;;;;;5102028;28;20032;-37
2021/12/26 07:51:58;;;;;;;2.90;2.33;;;17.80;34.30;;;;;;5117541;28;20022;-38
2021/12/26 07:54:24;;;;;;;2.97;2.22;;;17.70;34.20;;;;;;5098869;28;20497;-39
2021/12/26 07:56:51;;;;;;;3.47;2.22;;;17.70;34.30;;;;;;5117039;28;20019;-38
2021/12/26 07:59:17;;;;;;;2.65;2.00;;;17.70;34.30;;;;;;5098853;28;20004;-39
2021/12/26 08:01:44;;;;;;;4.70;2.20;;;17.70;34.80;;;;;;5116830;28;20031;-38
2021/12/26 08:04:11;;;;;;;3.60;2.30;;;17.80;34.20;;;;;;5098457;28;20036;-40
2021/12/26 08:06:37;;;;;;;3.00;2.17;;;17.80;34.30;;;;;;5116692;28;20049;-38
2021/12/26 08:09:03;;;;;;;3.00;2.10;;;17.70;34.30;;;;;;5116538;28;20020;-39
2021/12/26 08:11:29;;;;;;;3.17;2.15;;;17.80;34.30;;;;;;5116602;28;20042;-39
2021/12/26 08:13:54;;;;;;;3.40;2.25;;;17.80;34.20;;;;;;5117326;28;20463;-40
2021/12/26 08:16:20;;;;;;;2.67;1.85;;;17.80;34.20;;;;;;5116642;28;20118;-38
2021/12/26 08:18:47;;;;;;;3.13;2.30;;;17.80;34.20;;;;;;5098883;28;20016;-40
2021/12/26 08:21:13;;;;;;;3.42;2.20;;;17.80;34.30;;;;;;5116982;28;20023;-41
2021/12/26 08:23:38;;;;;;;4.75;2.40;;;17.80;34.30;;;;;;5116353;28;20019;-38
2021/12/26 08:26:04;;;;;;;3.35;2.10;;;17.80;34.30;;;;;;5098053;28;20138;-38
2021/12/26 08:28:30;;;;;;;3.95;2.13;;;17.80;34.30;;;;;;5116032;28;20383;-39
2021/12/26 08:30:56;;;;;;;3.13;2.15;;;17.80;34.30;;;;;;5116375;28;20028;-38
2021/12/26 08:33:28;;;;;;;3.25;2.35;;;17.80;34.20;;;;;;5116301;28;20023;-38
2021/12/26 08:35:54;;;;;;;2.67;1.85;;;17.80;34.20;;;;;;5116771;28;20020;-38
2021/12/26 08:38:21;;;;;;;3.53;2.22;;;17.80;34.20;;;;;;5116944;28;20011;-39
2021/12/26 08:40:50;;;;;;;4.43;2.42;;;17.80;34.10;;;;;;5117916;28;20017;-39
2021/12/26 08:43:16;;;;;;;2.70;1.75;;;17.80;34.20;;;;;;5119360;28;20035;-43
2021/12/26 08:45:43;;;;;;;3.10;2.22;;;17.90;34.30;;;;;;5118984;28;20024;-39
2021/12/26 08:48:09;;;;;;;3.25;2.20;;;17.80;34.20;;;;;;5119281;28;20020;-40
2021/12/26 08:50:35;;;;;;;3.20;2.17;;;17.80;34.30;;;;;;5118586;28;20019;-39
2021/12/26 08:53:02;;;;;;;3.20;2.25;;;17.80;34.20;;;;;;5118779;28;20014;-40
2021/12/26 08:55:28;;;;;;;3.40;2.20;;;17.90;34.30;;;;;;5118268;28;20011;-44
2021/12/26 08:57:55;;;;;;;2.67;2.03;;;17.90;34.20;;;;;;5099415;28;20046;-42
2021/12/26 09:00:21;;;;;;;2.78;2.08;;;17.90;34.10;;;;;;5118424;28;20016;-45
2021/12/26 09:02:48;;;;;;;3.45;2.50;;;17.90;34.10;;;;;;5118099;28;20022;-42
2021/12/26 09:05:14;;;;;;;3.25;2.00;;;17.90;34.10;;;;;;5118836;28;20128;-45
2021/12/26 09:07:40;;;;;;;3.38;2.17;;;17.90;34.10;;;;;;5118048;28;20042;-40
2021/12/26 09:10:07;;;;;;;3.50;2.25;;;18.00;34.10;;;;;;5117760;28;20024;-43
2021/12/26 09:12:33;;;;;;;3.35;2.45;;;18.00;34.10;;;;;;5119052;28;20043;-43
2021/12/26 09:15:04;;;;;;;2.75;1.90;;;18.00;34.20;;;;;;5119045;28;20493;-46
2021/12/26 09:17:29;;;;;;;2.33;1.83;;;18.00;34.10;;;;;;5118523;28;20028;-42
2021/12/26 09:19:56;;;;;;;2.40;1.90;;;18.10;34.00;;;;;;5118794;28;20020;-44
2021/12/26 09:22:22;;;;;;;2.90;2.00;;;18.20;33.90;;;;;;5118487;28;20019;-46
2021/12/26 09:24:51;;;;;;;4.00;2.22;;;18.20;33.80;;;;;;5117260;28;20020;-43
2021/12/26 09:27:17;;;;;;;2.63;1.70;;;18.30;33.70;;;;;;5117632;28;20031;-42
2021/12/26 09:29:43;;;;;;;3.78;1.95;;;18.30;33.60;;;;;;5117057;28;20023;-43
2021/12/26 09:32:09;;;;;;;2.90;1.90;;;18.40;33.50;;;;;;5115889;28;20466;-44
2021/12/26 09:34:36;;;;;;;2.88;2.00;;;18.50;33.40;;;;;;5097897;28;20064;-44
2021/12/26 09:37:03;;;;;;;2.97;2.10;;;18.50;33.30;;;;;;5115872;28;20020;-41
2021/12/26 09:39:29;;;;;;;3.25;1.70;;;18.50;33.20;;;;;;5117013;28;20083;-45
2021/12/26 09:41:55;;;;;;;3.35;1.73;;;18.60;33.20;;;;;;5117477;28;20055;-40
2021/12/26 09:44:22;;;;;;;2.85;1.98;;;18.70;33.00;;;;;;5117246;28;20023;-42
2021/12/26 09:46:49;;;;;;;2.88;2.03;;;18.80;33.00;;;;;;5117291;28;20092;-43
2021/12/26 09:49:15;;;;;;;2.45;2.20;;;18.80;32.90;;;;;;5117037;28;20072;-46
2021/12/26 09:51:41;;;;;;;2.33;1.88;;;18.90;32.80;;;;;;5116624;28;20015;-45
2021/12/26 09:54:07;;;;;;;2.58;1.88;;;18.90;32.80;;;;;;5116580;28;20023;-44
2021/12/26 09:56:34;;;;;;;2.45;1.80;;;18.90;32.70;;;;;;5098715;28;20020;-45
2021/12/26 09:59:03;;;;;;;2.30;1.80;;;18.90;32.70;;;;;;5117383;28;20039;-41
2021/12/26 10:01:32;;;;;;;2.35;1.83;;;19.00;32.60;;;;;;5117588;28;20095;-39
2021/12/26 10:04:28;;;;;;;2.60;1.88;;;19.00;32.50;;;;;;5116533;28;20020;-38
2021/12/26 10:06:58;;;;;;;3.38;2.10;;;19.10;32.60;;;;;;5114042;28;20032;-38
2021/12/26 10:09:24;;;;;;;;;;;19.10;32.50;;;;;;5116293;28;20106;-37
2021/12/26 10:11:52;;;;;;;3.08;1.92;;;19.20;32.50;;;;;;5115378;28;19965;-37
2021/12/26 10:14:23;;;;;;;2.50;1.83;;;19.20;32.50;;;;;;5114705;28;20599;-37
2021/12/26 10:16:53;;;;;;;2.75;1.80;;;19.20;32.30;;;;;;5115366;28;20028;-37
2021/12/26 10:19:20;;;;;;;2.55;1.80;;;19.30;32.40;;;;;;5097389;28;20105;-42
2021/12/26 10:21:50;;;;;;;2.38;1.70;;;19.30;32.30;;;;;;5115331;28;20012;-39
2021/12/26 10:24:17;;;;;;;;;;;19.30;32.90;;;;;;5097124;28;20020;-38
2021/12/26 10:26:51;;;;;;;2.17;1.67;;;19.30;32.30;;;;;;5115058;28;19998;-38
2021/12/26 10:29:18;;;;;;;2.50;1.70;;;19.30;32.30;;;;;;5115633;28;20028;-40
2021/12/26 10:31:47;;;;;;;2.03;1.73;;;19.30;32.30;;;;;;5115908;28;20090;-39
2021/12/26 10:34:39;;;;;;;2.95;1.83;;;19.30;32.40;;;;;;5116512;28;20059;-39
2021/12/26 10:37:08;;;;;;;2.85;1.90;;;19.30;32.40;;;;;;5077478;28;20031;-38
2021/12/26 10:39:41;;;;;;;2.25;1.70;;;19.30;32.40;;;;;;5114880;28;20061;-40
2021/12/26 10:42:10;;;;;;;2.17;1.98;;;19.20;32.50;;;;;;5097342;28;20023;-38
2021/12/26 10:44:44;;;;;;;2.72;1.75;;;19.20;32.60;;;;;;5115206;28;20040;-37
2021/12/26 10:47:18;;;;;;;3.08;1.88;;;19.10;32.70;;;;;;5114918;28;20020;-38
2021/12/26 10:49:52;;;;;;;2.15;1.70;;;19.10;32.80;;;;;;5114551;28;20012;-39
2021/12/26 10:52:23;;;;;;;2.83;1.70;;;19.10;32.80;;;;;;5114075;28;20034;-38
2021/12/26 10:54:57;;;;;;;3.03;1.80;;;19.10;32.90;;;;;;5114384;28;20004;-38
2021/12/26 10:57:27;;;;;;;2.15;1.60;;;19.00;32.90;;;;;;5115908;28;20469;-40
2021/12/26 11:00:07;;;;;;;2.92;1.90;;;19.00;33.00;;;;;;5117533;28;20016;-37
2021/12/26 11:02:34;;;;;;;2.05;1.70;;;18.90;33.00;;;;;;5116830;28;20023;-38
2021/12/26 11:05:11;;;;;;;2.60;1.60;;;18.90;33.10;;;;;;5116534;28;20028;-37
2021/12/26 11:07:44;;;;;;;2.35;1.85;;;18.90;33.20;;;;;;5116562;28;20085;-37
2021/12/26 11:10:12;;;;;;;1.85;1.63;;;18.90;33.30;;;;;;5116339;28;20012;-39
2021/12/26 11:12:41;;;;;;;2.17;1.58;;;18.90;33.30;;;;;;5116313;28;20020;-37
2021/12/26 11:15:08;;;;;;;2.08;1.67;;;18.80;33.30;;;;;;5116465;28;20076;-39
2021/12/26 11:17:39;;;;;;;2.13;1.60;;;18.80;33.40;;;;;;5098028;28;20047;-38
2021/12/26 11:20:06;;;;;;;2.63;1.98;;;18.80;33.60;;;;;;5116174;28;20070;-37
2021/12/26 11:22:33;;;;;;;1.70;1.52;;;18.70;33.60;;;;;;5098332;28;20103;-37
2021/12/26 11:24:59;;;;;;;2.10;1.80;;;18.80;33.70;;;;;;5117477;28;20011;-37
2021/12/26 11:27:25;;;;;;;2.08;1.67;;;18.70;33.70;;;;;;5102308;28;20024;-37
2021/12/26 11:29:52;;;;;;;2.08;1.60;;;18.70;33.70;;;;;;5102964;28;20064;-38
2021/12/26 11:32:22;;;;;;;1.90;1.52;;;18.70;33.80;;;;;;5121618;28;20020;-37
2021/12/26 11:34:49;;;;;;;2.10;1.67;;;18.70;33.80;;;;;;5121359;28;20012;-37
2021/12/26 11:37:15;;;;;;;1.80;1.60;;;18.70;33.90;;;;;;5122261;28;20086;-38
2021/12/26 11:39:43;;;;;;;2.13;1.85;;;18.70;34.00;;;;;;5121604;28;20099;-39
2021/12/26 11:42:22;;;;;;;2.40;1.70;;;18.70;33.90;;;;;;5121316;28;20034;-37
2021/12/26 11:45:22;;;;;;;2.25;1.70;;;18.70;34.40;;;;;;5103748;28;20012;-38
2021/12/26 11:48:26;;;;;;;2.28;1.63;;;18.70;33.90;;;;;;5121550;28;20542;-38
2021/12/26 11:51:28;;;;;;;3.40;1.73;;;18.70;34.00;;;;;;5122109;28;20536;-39
2021/12/26 11:54:15;;;;;;;2.50;1.60;;;18.70;34.10;;;;;;5066949;28;20028;-39
2021/12/26 11:56:59;;;;;;;2.45;1.80;;;18.60;34.20;;;;;;5104249;28;20024;-38
2021/12/26 11:59:50;;;;;;;2.40;1.63;;;18.60;34.20;;;;;;5120936;28;20099;-37
2021/12/26 12:02:46;;;;;;;2.58;1.77;;;18.60;34.30;;;;;;5121658;28;20008;-40
2021/12/26 12:05:20;;;;;;;2.60;1.80;;;18.50;34.40;;;;;;5121403;28;20020;-38
2021/12/26 12:07:50;;;;;;;2.40;1.60;;;18.50;34.40;;;;;;5121399;28;20039;-38
2021/12/26 12:10:56;;;;;;;2.50;1.80;;;18.50;34.60;;;;;;5121962;28;20036;-38
2021/12/26 12:13:21;;;;;;;2.22;1.83;;;18.30;34.70;;;;;;5116056;28;20020;-37
2021/12/26 12:15:55;;;;;;;2.38;1.92;;;18.30;34.80;;;;;;5116210;28;20023;-37
2021/12/26 12:18:23;;;;;;;2.65;1.83;;;18.20;34.90;;;;;;5115899;28;20031;-37
2021/12/26 12:21:11;;;;;;;2.85;1.92;;;18.20;35.10;;;;;;5116138;28;20035;-37
2021/12/26 12:23:40;;;;;;;2.40;1.92;;;18.10;35.30;;;;;;5116165;28;20076;-37
2021/12/26 12:26:06;;;;;;;2.42;1.80;;;18.10;35.40;;;;;;5098146;28;20042;-38
2021/12/26 12:28:33;;;;;;;2.67;1.90;;;18.00;35.60;;;;;;5097580;28;20466;-37
2021/12/26 12:31:08;;;;;;;2.42;1.80;;;18.00;35.70;;;;;;5115779;28;20023;-38
2021/12/26 12:33:35;;;;;;;3.40;2.03;;;17.90;35.80;;;;;;5115857;28;20020;-37
2021/12/26 12:36:13;;;;;;;2.28;1.70;;;17.90;36.00;;;;;;5115568;28;20031;-37
2021/12/26 12:38:48;;;;;;;2.33;1.90;;;17.80;36.00;;;;;;5081515;28;20012;-38
2021/12/26 12:41:29;;;;;;;3.00;1.95;;;17.80;36.00;;;;;;5115575;28;20019;-38
2021/12/26 12:43:57;;;;;;;2.33;1.60;;;17.80;36.20;;;;;;5116146;28;20027;-37
2021/12/26 12:46:23;;;;;;;2.58;1.80;;;17.70;36.30;;;;;;5115566;28;20012;-37
2021/12/26 12:49:08;;;;;;;2.53;1.90;;;17.70;36.50;;;;;;5115859;28;20023;-37
2021/12/26 12:51:46;;;;;;;2.55;2.10;;;17.60;36.60;;;;;;5115468;28;20547;-37
2021/12/26 12:54:19;;;;;;;4.10;2.08;;;17.60;37.20;;;;;;5116184;28;20024;-37
2021/12/26 12:56:46;;;;;;;2.75;1.90;;;17.60;36.70;;;;;;5115419;28;20519;-37
2021/12/26 12:59:19;;;;;;;3.83;1.90;;;17.50;36.80;;;;;;5115743;28;20020;-36
2021/12/26 13:02:01;;;;;;;2.40;1.85;;;17.50;36.80;;;;;;5115447;28;20103;-37
2021/12/26 13:04:42;;;;;;;2.33;2.03;;;17.50;37.00;;;;;;5115517;28;20016;-38